createdAt,value
2024-02-26T00:00:34.858Z,603.00
2024-02-26T00:01:34.776Z,604.00
2024-02-26T00:02:34.809Z,605.00
2024-02-26T00:03:34.904Z,601.00
2024-02-26T00:04:34.845Z,602.00
2024-02-26T00:05:34.907Z,601.00
2024-02-26T00:06:34.936Z,604.00
2024-02-26T00:07:34.907Z,604.00
2024-02-26T00:08:34.928Z,603.00
2024-02-26T00:09:34.943Z,606.00
2024-02-26T00:10:34.969Z,603.00
2024-02-26T00:11:35.043Z,603.00
2024-02-26T00:12:35.014Z,604.00
2024-02-26T00:13:35.071Z,603.00
2024-02-26T00:14:35.081Z,604.00
2024-02-26T00:15:35.101Z,601.00
2024-02-26T00:16:35.109Z,604.00
2024-02-26T00:17:35.178Z,603.00
2024-02-26T00:18:35.303Z,602.00
2024-02-26T00:19:35.270Z,602.00
2024-02-26T00:20:35.241Z,600.00
2024-02-26T00:21:35.267Z,603.00
2024-02-26T00:22:35.278Z,602.00
2024-02-26T00:23:35.310Z,603.00
2024-02-26T00:24:35.315Z,605.00
2024-02-26T00:25:35.382Z,606.00
2024-02-26T00:26:35.359Z,602.00
2024-02-26T00:27:35.393Z,603.00
2024-02-26T00:28:35.428Z,603.00
2024-02-26T00:29:35.436Z,601.00
2024-02-26T00:30:35.526Z,602.00
2024-02-26T00:31:35.497Z,602.00
2024-02-26T00:32:35.542Z,601.00
2024-02-26T00:33:35.762Z,604.00
2024-02-26T00:34:35.599Z,605.00
2024-02-26T00:35:35.573Z,603.00
2024-02-26T00:36:35.608Z,604.00
2024-02-26T00:37:35.607Z,600.00
2024-02-26T00:38:35.628Z,601.00
2024-02-26T00:39:35.649Z,604.00
2024-02-26T00:40:35.718Z,603.00
2024-02-26T00:41:35.727Z,605.00
2024-02-26T00:42:35.754Z,601.00
2024-02-26T00:43:35.757Z,602.00
2024-02-26T00:44:35.787Z,604.00
2024-02-26T00:45:35.815Z,606.00
2024-02-26T00:46:35.835Z,604.00
2024-02-26T00:47:35.909Z,605.00
2024-02-26T00:48:35.985Z,606.00
2024-02-26T00:49:35.955Z,607.00
2024-02-26T00:50:35.963Z,604.00
2024-02-26T00:51:36.010Z,605.00
2024-02-26T00:52:35.982Z,607.00
2024-02-26T00:53:36.022Z,604.00
2024-02-26T00:54:36.035Z,605.00
2024-02-26T00:55:36.102Z,606.00
2024-02-26T00:56:36.094Z,604.00
2024-02-26T00:57:36.128Z,605.00
2024-02-26T00:58:36.167Z,606.00
2024-02-26T00:59:36.167Z,601.00
2024-02-26T01:00:36.196Z,602.00
2024-02-26T01:01:36.202Z,606.00
2024-02-26T01:02:36.252Z,602.00
2024-02-26T01:03:36.298Z,607.00
2024-02-26T01:04:36.294Z,602.00
2024-02-26T01:05:36.286Z,605.00
2024-02-26T01:06:36.401Z,603.00
2024-02-26T01:07:36.454Z,605.00
2024-02-26T01:08:36.380Z,607.00
2024-02-26T01:09:36.386Z,603.00
2024-02-26T01:10:36.432Z,604.00
2024-02-26T01:11:36.496Z,604.00
2024-02-26T01:12:36.462Z,606.00
2024-02-26T01:13:36.503Z,602.00
2024-02-26T01:14:36.523Z,604.00
2024-02-26T01:15:36.536Z,601.00
2024-02-26T01:16:36.591Z,603.00
2024-02-26T01:17:36.667Z,602.00
2024-02-26T01:18:36.745Z,603.00
2024-02-26T01:19:36.675Z,604.00
2024-02-26T01:20:36.642Z,604.00
2024-02-26T01:21:36.689Z,604.00
2024-02-26T01:22:36.684Z,602.00
2024-02-26T01:23:36.728Z,606.00
2024-02-26T01:24:36.729Z,604.00
2024-02-26T01:25:36.763Z,603.00
2024-02-26T01:26:36.761Z,601.00
2024-02-26T01:27:36.794Z,605.00
2024-02-26T01:28:36.842Z,604.00
2024-02-26T01:29:36.852Z,603.00
2024-02-26T01:30:36.899Z,602.00
2024-02-26T01:31:36.917Z,603.00
2024-02-26T01:32:36.965Z,603.00
2024-02-26T01:33:37.099Z,607.00
2024-02-26T01:34:37.014Z,601.00
2024-02-26T01:35:37.005Z,603.00
2024-02-26T01:36:37.010Z,603.00
2024-02-26T01:37:37.023Z,602.00
2024-02-26T01:38:37.056Z,604.00
2024-02-26T01:39:37.082Z,604.00
2024-02-26T01:40:37.092Z,603.00
2024-02-26T01:41:37.114Z,603.00
2024-02-26T01:42:37.136Z,604.00
2024-02-26T01:43:37.161Z,606.00
2024-02-26T01:44:37.186Z,603.00
2024-02-26T01:45:37.216Z,603.00
2024-02-26T01:46:37.223Z,601.00
2024-02-26T01:47:37.251Z,604.00
2024-02-26T01:48:37.385Z,602.00
2024-02-26T01:49:37.371Z,605.00
2024-02-26T01:50:37.317Z,605.00
2024-02-26T01:51:37.387Z,604.00
2024-02-26T01:52:37.383Z,602.00
2024-02-26T01:53:37.396Z,604.00
2024-02-26T01:54:37.431Z,604.00
2024-02-26T01:55:37.446Z,603.00
2024-02-26T01:56:37.471Z,600.00
2024-02-26T01:57:37.522Z,603.00
2024-02-26T01:58:37.544Z,606.00
2024-02-26T01:59:37.565Z,605.00
2024-02-26T02:00:37.661Z,603.00
2024-02-26T02:01:37.572Z,603.00
2024-02-26T02:02:37.609Z,603.00
2024-02-26T02:03:37.726Z,605.00
2024-02-26T02:04:37.650Z,603.00
2024-02-26T02:05:37.685Z,601.00
2024-02-26T02:06:37.764Z,602.00
2024-02-26T02:07:37.733Z,602.00
2024-02-26T02:08:37.760Z,604.00
2024-02-26T02:09:37.769Z,602.00
2024-02-26T02:10:37.818Z,605.00
2024-02-26T02:11:37.840Z,605.00
2024-02-26T02:12:37.872Z,601.00
2024-02-26T02:13:37.885Z,601.00
2024-02-26T02:14:37.900Z,604.00
2024-02-26T02:15:37.969Z,604.00
2024-02-26T02:16:37.963Z,603.00
2024-02-26T02:17:38.042Z,602.00
2024-02-26T02:18:38.068Z,600.00
2024-02-26T02:19:38.129Z,601.00
2024-02-26T02:20:38.062Z,603.00
2024-02-26T02:21:38.098Z,602.00
2024-02-26T02:22:38.114Z,602.00
2024-02-26T02:23:38.165Z,605.00
2024-02-26T02:24:38.362Z,603.00
2024-02-26T02:25:38.237Z,601.00
2024-02-26T02:26:38.215Z,605.00
2024-02-26T02:27:38.321Z,601.00
2024-02-26T02:28:38.292Z,603.00
2024-02-26T02:29:38.282Z,604.00
2024-02-26T02:30:38.321Z,606.00
2024-02-26T02:31:38.407Z,602.00
2024-02-26T02:32:38.371Z,606.00
2024-02-26T02:33:38.605Z,603.00
2024-02-26T02:34:38.502Z,606.00
2024-02-26T02:35:38.428Z,602.00
2024-02-26T02:36:38.480Z,605.00
2024-02-26T02:37:38.488Z,603.00
2024-02-26T02:38:38.512Z,602.00
2024-02-26T02:39:38.524Z,604.00
2024-02-26T02:40:38.561Z,603.00
2024-02-26T02:41:38.592Z,602.00
2024-02-26T02:42:38.610Z,603.00
2024-02-26T02:43:38.620Z,604.00
2024-02-26T02:44:38.647Z,602.00
2024-02-26T02:45:38.678Z,603.00
2024-02-26T02:46:38.700Z,602.00
2024-02-26T02:47:38.777Z,603.00
2024-02-26T02:48:38.823Z,600.00
2024-02-26T02:49:38.902Z,601.00
2024-02-26T02:50:38.820Z,602.00
2024-02-26T02:51:38.865Z,604.00
2024-02-26T02:52:38.862Z,606.00
2024-02-26T02:53:38.940Z,605.00
2024-02-26T02:54:38.890Z,607.00
2024-02-26T02:55:38.916Z,604.00
2024-02-26T02:56:38.939Z,605.00
2024-02-26T02:57:38.956Z,606.00
2024-02-26T02:58:38.993Z,605.00
2024-02-26T02:59:39.022Z,602.00
2024-02-26T03:00:39.161Z,604.00
2024-02-26T03:01:39.072Z,606.00
2024-02-26T03:02:39.096Z,603.00
2024-02-26T03:03:39.125Z,605.00
2024-02-26T03:04:39.231Z,603.00
2024-02-26T03:05:39.195Z,602.00
2024-02-26T03:06:39.290Z,605.00
2024-02-26T03:07:39.190Z,604.00
2024-02-26T03:08:39.363Z,604.00
2024-02-26T03:09:39.226Z,603.00
2024-02-26T03:10:39.246Z,603.00
2024-02-26T03:11:39.278Z,604.00
2024-02-26T03:12:39.290Z,605.00
2024-02-26T03:13:39.332Z,602.00
2024-02-26T03:14:39.371Z,604.00
2024-02-26T03:15:39.408Z,604.00
2024-02-26T03:16:39.423Z,606.00
2024-02-26T03:17:39.485Z,602.00
2024-02-26T03:18:39.534Z,604.00
2024-02-26T03:19:39.487Z,604.00
2024-02-26T03:20:39.608Z,604.00
2024-02-26T03:21:39.497Z,602.00
2024-02-26T03:22:39.554Z,603.00
2024-02-26T03:23:39.650Z,604.00
2024-02-26T03:24:39.617Z,605.00
2024-02-26T03:25:39.612Z,602.00
2024-02-26T03:26:39.680Z,605.00
2024-02-26T03:27:39.646Z,604.00
2024-02-26T03:28:39.678Z,604.00
2024-02-26T03:29:39.796Z,603.00
2024-02-26T03:30:39.736Z,604.00
2024-02-26T03:31:39.738Z,604.00
2024-02-26T03:32:39.831Z,603.00
2024-02-26T03:33:39.925Z,605.00
2024-02-26T03:34:40.002Z,601.00
2024-02-26T03:35:39.887Z,604.00
2024-02-26T03:36:39.895Z,602.00
2024-02-26T03:37:39.909Z,603.00
2024-02-26T03:38:39.982Z,605.00
2024-02-26T03:39:39.950Z,604.00
2024-02-26T03:40:39.979Z,604.00
2024-02-26T03:41:40.029Z,603.00
2024-02-26T03:42:40.027Z,603.00
2024-02-26T03:43:40.042Z,604.00
2024-02-26T03:44:40.128Z,602.00
2024-02-26T03:45:40.144Z,602.00
2024-02-26T03:46:40.117Z,604.00
2024-02-26T03:47:40.309Z,603.00
2024-02-26T03:48:40.304Z,603.00
2024-02-26T03:49:40.343Z,603.00
2024-02-26T03:50:40.303Z,604.00
2024-02-26T03:51:40.248Z,603.00
2024-02-26T03:52:40.245Z,602.00
2024-02-26T03:53:40.301Z,603.00
2024-02-26T03:54:40.285Z,603.00
2024-02-26T03:55:40.298Z,600.00
2024-02-26T03:56:40.335Z,603.00
2024-02-26T03:57:40.330Z,603.00
2024-02-26T03:58:40.350Z,603.00
2024-02-26T03:59:40.362Z,603.00
2024-02-26T04:00:40.455Z,603.00
2024-02-26T04:01:40.366Z,604.00
2024-02-26T04:02:40.377Z,603.00
2024-02-26T04:03:40.403Z,604.00
2024-02-26T04:04:40.461Z,602.00
2024-02-26T04:05:40.582Z,602.00
2024-02-26T04:06:40.429Z,601.00
2024-02-26T04:07:40.392Z,603.00
2024-02-26T04:08:40.427Z,605.00
2024-02-26T04:09:40.400Z,601.00
2024-02-26T04:10:40.496Z,604.00
2024-02-26T04:11:40.465Z,605.00
2024-02-26T04:12:40.452Z,605.00
2024-02-26T04:13:40.440Z,601.00
2024-02-26T04:14:40.492Z,602.00
2024-02-26T04:15:40.508Z,602.00
2024-02-26T04:16:40.546Z,602.00
2024-02-26T04:17:40.643Z,603.00
2024-02-26T04:18:40.741Z,602.00
2024-02-26T04:19:40.749Z,603.00
2024-02-26T04:20:40.737Z,604.00
2024-02-26T04:21:40.769Z,606.00
2024-02-26T04:22:40.844Z,605.00
2024-02-26T04:23:40.936Z,604.00
2024-02-26T04:24:40.981Z,603.00
2024-02-26T04:25:41.036Z,605.00
2024-02-26T04:26:41.178Z,607.00
2024-02-26T04:27:41.190Z,605.00
2024-02-26T04:28:41.266Z,606.00
2024-02-26T04:29:41.365Z,606.00
2024-02-26T04:30:41.396Z,604.00
2024-02-26T04:31:41.468Z,604.00
2024-02-26T04:32:41.555Z,604.00
2024-02-26T04:33:41.693Z,604.00
2024-02-26T04:34:41.686Z,604.00
2024-02-26T04:35:41.765Z,605.00
2024-02-26T04:36:41.805Z,604.00
2024-02-26T04:37:41.879Z,606.00
2024-02-26T04:38:41.949Z,604.00
2024-02-26T04:39:51.124Z,600.00
2024-02-26T04:40:49.211Z,600.00
2024-02-26T04:41:49.238Z,600.00
2024-02-26T04:42:49.203Z,600.00
2024-02-26T04:43:49.214Z,600.00
2024-02-26T04:44:49.301Z,600.00
2024-02-26T04:45:49.364Z,600.00
2024-02-26T04:46:49.440Z,601.00
2024-02-26T04:47:49.569Z,602.00
2024-02-26T04:48:49.710Z,600.00
2024-02-26T04:49:49.652Z,600.00
2024-02-26T04:50:49.822Z,600.00
2024-02-26T04:51:49.762Z,600.00
2024-02-26T04:52:49.839Z,602.00
2024-02-26T04:53:49.944Z,601.00
2024-02-26T04:54:49.956Z,602.00
2024-02-26T04:55:50.004Z,600.00
2024-02-26T04:56:50.084Z,601.00
2024-02-26T04:57:50.138Z,600.00
2024-02-26T04:58:50.193Z,601.00
2024-02-26T04:59:50.333Z,603.00
2024-02-26T05:00:50.359Z,603.00
2024-02-26T05:01:50.433Z,604.00
2024-02-26T05:02:50.524Z,602.00
2024-02-26T05:03:50.616Z,603.00
2024-02-26T05:04:50.614Z,604.00
2024-02-26T05:05:50.802Z,603.00
2024-02-26T05:06:50.761Z,602.00
2024-02-26T05:07:50.799Z,602.00
2024-02-26T05:08:50.922Z,603.00
2024-02-26T05:09:51.083Z,604.00
2024-02-26T05:10:51.015Z,604.00
2024-02-26T05:11:51.071Z,605.00
2024-02-26T05:12:51.096Z,601.00
2024-02-26T05:13:51.178Z,603.00
2024-02-26T05:14:51.281Z,604.00
2024-02-26T05:15:51.322Z,603.00
2024-02-26T05:16:51.344Z,602.00
2024-02-26T05:17:51.476Z,604.00
2024-02-26T05:18:51.543Z,604.00
2024-02-26T05:19:51.600Z,604.00
2024-02-26T05:20:51.621Z,604.00
2024-02-26T05:21:51.786Z,604.00
2024-02-26T05:22:51.688Z,603.00
2024-02-26T05:23:51.787Z,602.00
2024-02-26T05:24:51.806Z,603.00
2024-02-26T05:25:51.908Z,603.00
2024-02-26T05:26:52.004Z,603.00
2024-02-26T05:27:51.995Z,603.00
2024-02-26T05:28:52.070Z,602.00
2024-02-26T05:29:52.124Z,603.00
2024-02-26T05:30:52.144Z,603.00
2024-02-26T05:31:52.197Z,603.00
2024-02-26T05:32:52.284Z,602.00
2024-02-26T05:33:52.375Z,603.00
2024-02-26T05:34:52.387Z,605.00
2024-02-26T05:35:52.478Z,603.00
2024-02-26T05:36:52.489Z,602.00
2024-02-26T05:37:52.542Z,605.00
2024-02-26T05:38:52.666Z,605.00
2024-02-26T05:39:52.619Z,603.00
2024-02-26T05:40:52.677Z,603.00
2024-02-26T05:41:52.784Z,602.00
2024-02-26T05:42:52.786Z,604.00
2024-02-26T05:43:52.848Z,604.00
2024-02-26T05:44:52.926Z,604.00
2024-02-26T05:45:53.002Z,605.00
2024-02-26T05:46:52.991Z,604.00
2024-02-26T05:47:53.108Z,605.00
2024-02-26T05:48:53.225Z,604.00
2024-02-26T05:49:53.207Z,605.00
2024-02-26T05:50:53.243Z,605.00
2024-02-26T05:51:53.263Z,603.00
2024-02-26T05:52:53.301Z,604.00
2024-02-26T05:53:53.383Z,602.00
2024-02-26T05:54:53.404Z,603.00
2024-02-26T05:55:53.457Z,603.00
2024-02-26T05:56:53.526Z,604.00
2024-02-26T05:57:53.577Z,604.00
2024-02-26T05:58:53.605Z,604.00
2024-02-26T05:59:53.691Z,604.00
2024-02-26T06:00:53.761Z,604.00
2024-02-26T06:01:53.766Z,603.00
2024-02-26T06:02:53.829Z,603.00
2024-02-26T06:03:53.905Z,604.00
2024-02-26T06:04:53.920Z,604.00
2024-02-26T06:05:54.014Z,604.00
2024-02-26T06:06:54.031Z,604.00
2024-02-26T06:07:54.023Z,604.00
2024-02-26T06:08:54.074Z,606.00
2024-02-26T06:09:54.100Z,601.00
2024-02-26T06:10:54.184Z,601.00
2024-02-26T06:11:54.238Z,604.00
2024-02-26T06:12:54.275Z,605.00
2024-02-26T06:13:54.289Z,604.00
2024-02-26T06:14:54.334Z,603.00
2024-02-26T06:15:54.380Z,605.00
2024-02-26T06:16:54.407Z,604.00
2024-02-26T06:17:54.543Z,604.00
2024-02-26T06:18:54.609Z,602.00
2024-02-26T06:19:54.571Z,605.00
2024-02-26T06:20:54.651Z,605.00
2024-02-26T06:21:54.617Z,602.00
2024-02-26T06:22:54.656Z,605.00
2024-02-26T06:23:54.784Z,600.00
2024-02-26T06:24:54.810Z,603.00
2024-02-26T06:25:54.822Z,605.00
2024-02-26T06:26:54.896Z,603.00
2024-02-26T06:27:54.890Z,604.00
2024-02-26T06:28:54.932Z,604.00
2024-02-26T06:29:57.583Z,604.00
2024-02-26T06:30:54.997Z,606.00
2024-02-26T06:31:55.057Z,606.00
2024-02-26T06:32:55.103Z,608.00
2024-02-26T06:33:55.097Z,609.00
2024-02-26T06:34:55.136Z,605.00
2024-02-26T06:35:55.007Z,607.00
2024-02-26T06:36:54.985Z,607.00
2024-02-26T06:37:55.177Z,601.00
2024-02-26T06:38:55.049Z,608.00
2024-02-26T06:39:54.973Z,609.00
2024-02-26T06:40:55.121Z,612.00
2024-02-26T06:41:55.033Z,610.00
2024-02-26T06:42:55.021Z,616.00
2024-02-26T06:43:54.995Z,619.00
2024-02-26T06:44:55.044Z,625.00
2024-02-26T06:45:55.444Z,630.00
2024-02-26T06:46:55.000Z,642.00
2024-02-26T06:47:55.174Z,651.00
2024-02-26T06:48:55.994Z,672.00
2024-02-26T06:49:55.296Z,694.00
2024-02-26T06:50:55.121Z,727.00
2024-02-26T06:51:55.051Z,776.00
2024-02-26T06:52:55.006Z,833.00
2024-02-26T06:53:55.084Z,981.00
2024-02-26T06:54:55.947Z,996.00
2024-02-26T06:55:55.027Z,1017.00
2024-02-26T06:56:55.083Z,1021.00
2024-02-26T06:57:55.007Z,1015.00
2024-02-26T06:58:55.016Z,1029.00
2024-02-26T06:59:55.036Z,1033.00
2024-02-26T07:00:55.446Z,1036.00
2024-02-26T07:01:55.133Z,1046.00
2024-02-26T07:02:55.145Z,1051.00
2024-02-26T07:03:55.042Z,1065.00
2024-02-26T07:04:55.032Z,1079.00
2024-02-26T07:05:55.206Z,1085.00
2024-02-26T07:06:55.152Z,1112.00
2024-02-26T07:07:55.028Z,1125.00
2024-02-26T07:08:55.058Z,1147.00
2024-02-26T07:09:55.025Z,1170.00
2024-02-26T07:10:55.066Z,1195.00
2024-02-26T07:11:56.206Z,1215.00
2024-02-26T07:12:55.229Z,1240.00
2024-02-26T07:13:55.240Z,1244.00
2024-02-26T07:14:55.273Z,1257.00
2024-02-26T07:15:55.337Z,1256.00
2024-02-26T07:16:55.361Z,1273.00
2024-02-26T07:17:56.546Z,1276.00
2024-02-26T07:18:55.821Z,1288.00
2024-02-26T07:19:55.586Z,1299.00
2024-02-26T07:20:55.600Z,1310.00
2024-02-26T07:21:55.600Z,1318.00
2024-02-26T07:22:55.640Z,1328.00
2024-02-26T07:23:55.709Z,1335.00
2024-02-26T07:24:55.757Z,1338.00
2024-02-26T07:25:55.927Z,1357.00
2024-02-26T07:26:55.824Z,1355.00
2024-02-26T07:27:55.841Z,1373.00
2024-02-26T07:28:55.871Z,1373.00
2024-02-26T07:29:55.985Z,1374.00
2024-02-26T07:30:55.939Z,1383.00
2024-02-26T07:31:55.971Z,1383.00
2024-02-26T07:32:56.098Z,1392.00
2024-02-26T07:33:56.195Z,1395.00
2024-02-26T07:34:56.117Z,1410.00
2024-02-26T07:35:56.312Z,1410.00
2024-02-26T07:36:56.161Z,1428.00
2024-02-26T07:37:56.201Z,1447.00
2024-02-26T07:38:56.288Z,1446.00
2024-02-26T07:39:56.292Z,1454.00
2024-02-26T07:41:02.867Z,1479.00
2024-02-26T07:41:57.369Z,1480.00
2024-02-26T07:42:56.399Z,1485.00
2024-02-26T07:43:56.327Z,1496.00
2024-02-26T07:44:56.441Z,1507.00
2024-02-26T07:45:56.366Z,1549.00
2024-02-26T07:46:56.333Z,1580.00
2024-02-26T07:47:56.429Z,1585.00
2024-02-26T07:48:56.516Z,1591.00
2024-02-26T07:49:56.380Z,1591.00
2024-02-26T07:50:56.515Z,1580.00
2024-02-26T07:51:56.333Z,1570.00
2024-02-26T07:52:56.371Z,1567.00
2024-02-26T07:53:56.432Z,1551.00
2024-02-26T07:54:56.389Z,1555.00
2024-02-26T07:55:56.337Z,1547.00
2024-02-26T07:56:56.362Z,1542.00
2024-02-26T07:57:56.349Z,1533.00
2024-02-26T07:58:56.352Z,1533.00
2024-02-26T07:59:56.432Z,1527.00
2024-02-26T08:00:56.469Z,1539.00
2024-02-26T08:01:58.895Z,1534.00
2024-02-26T08:02:56.465Z,1547.00
2024-02-26T08:03:56.489Z,1545.00
2024-02-26T08:04:56.376Z,1542.00
2024-02-26T08:05:56.553Z,1548.00
2024-02-26T08:06:56.411Z,1545.00
2024-02-26T08:07:56.357Z,1543.00
2024-02-26T08:08:56.425Z,1555.00
2024-02-26T08:09:56.492Z,1563.00
2024-02-26T08:10:56.397Z,1566.00
2024-02-26T08:11:56.388Z,1561.00
2024-02-26T08:12:56.363Z,1566.00
2024-02-26T08:13:56.404Z,1562.00
2024-02-26T08:14:56.975Z,1566.00
2024-02-26T08:15:56.391Z,1559.00
2024-02-26T08:16:56.383Z,1568.00
2024-02-26T08:17:56.530Z,1575.00
2024-02-26T08:18:56.511Z,1572.00
2024-02-26T08:19:56.448Z,1566.00
2024-02-26T08:20:56.471Z,1567.00
2024-02-26T08:21:56.378Z,1570.00
2024-02-26T08:22:56.382Z,1568.00
2024-02-26T08:23:56.416Z,1578.00
2024-02-26T08:24:56.389Z,1578.00
2024-02-26T08:25:56.384Z,1582.00
2024-02-26T08:26:56.402Z,1576.00
2024-02-26T08:27:56.385Z,1587.00
2024-02-26T08:28:57.015Z,1597.00
2024-02-26T08:29:56.408Z,1604.00
2024-02-26T08:30:56.448Z,1604.00
2024-02-26T08:31:56.404Z,1610.00
2024-02-26T08:32:56.450Z,1630.00
2024-02-26T08:33:56.703Z,1642.00
2024-02-26T08:34:56.480Z,1630.00
2024-02-26T08:35:56.434Z,1596.00
2024-02-26T08:36:56.438Z,1579.00
2024-02-26T08:37:56.437Z,1628.00
2024-02-26T08:38:56.434Z,1702.00
2024-02-26T08:39:56.450Z,1781.00
2024-02-26T08:40:56.461Z,1781.00
2024-02-26T08:41:56.496Z,1777.00
2024-02-26T08:42:56.434Z,1868.00
2024-02-26T08:43:56.422Z,1886.00
2024-02-26T08:44:56.512Z,1849.00
2024-02-26T08:45:56.486Z,1822.00
2024-02-26T08:46:56.442Z,1786.00
2024-02-26T08:47:56.626Z,1747.00
2024-02-26T08:48:56.629Z,1709.00
2024-02-26T08:49:56.473Z,1680.00
2024-02-26T08:50:56.480Z,1666.00
2024-02-26T08:51:56.449Z,1661.00
2024-02-26T08:52:56.438Z,1621.00
2024-02-26T08:53:56.464Z,1605.00
2024-02-26T08:54:56.459Z,1591.00
2024-02-26T08:55:56.947Z,1575.00
2024-02-26T08:56:56.544Z,1564.00
2024-02-26T08:57:56.498Z,1593.00
2024-02-26T08:58:56.442Z,1745.00
2024-02-26T08:59:56.505Z,2039.00
2024-02-26T09:00:56.466Z,2250.00
2024-02-26T09:01:56.443Z,2377.00
2024-02-26T09:02:56.496Z,2456.00
2024-02-26T09:03:56.525Z,2490.00
2024-02-26T09:04:56.460Z,2529.00
2024-02-26T09:05:57.027Z,2557.00
2024-02-26T09:06:56.951Z,2557.00
2024-02-26T09:07:56.466Z,2564.00
2024-02-26T09:08:59.596Z,2549.00
2024-02-26T09:09:56.481Z,2549.00
2024-02-26T09:10:56.560Z,2550.00
2024-02-26T09:11:56.601Z,2553.00
2024-02-26T09:12:56.618Z,2558.00
2024-02-26T09:13:56.498Z,2564.00
2024-02-26T09:14:56.479Z,2559.00
2024-02-26T09:15:56.947Z,2563.00
2024-02-26T09:16:56.492Z,2554.00
2024-02-26T09:17:56.624Z,2552.00
2024-02-26T09:18:56.733Z,2544.00
2024-02-26T09:19:56.852Z,2550.00
2024-02-26T09:20:57.017Z,2541.00
2024-02-26T09:21:56.964Z,2539.00
2024-02-26T09:22:56.916Z,2530.00
2024-02-26T09:23:57.107Z,2505.00
2024-02-26T09:24:56.992Z,2487.00
2024-02-26T09:25:57.016Z,2389.00
2024-02-26T09:26:57.526Z,2244.00
2024-02-26T09:27:57.098Z,2091.00
2024-02-26T09:28:57.130Z,1876.00
2024-02-26T09:29:57.192Z,1740.00
2024-02-26T09:30:57.460Z,1580.00
2024-02-26T09:31:57.234Z,1466.00
2024-02-26T09:32:57.341Z,1355.00
2024-02-26T09:34:01.173Z,1251.00
2024-02-26T09:34:58.325Z,1170.00
2024-02-26T09:35:57.354Z,1099.00
2024-02-26T09:37:04.845Z,1037.00
2024-02-26T09:37:58.362Z,1008.00
2024-02-26T09:39:01.361Z,962.00
2024-02-26T09:39:57.436Z,934.00
2024-02-26T09:40:57.493Z,917.00
2024-02-26T09:41:57.410Z,890.00
2024-02-26T09:42:57.326Z,887.00
2024-02-26T09:43:57.409Z,870.00
2024-02-26T09:44:57.341Z,878.00
2024-02-26T09:45:57.370Z,959.00
2024-02-26T09:46:57.480Z,999.00
2024-02-26T09:47:57.704Z,1014.00
2024-02-26T09:48:57.532Z,1016.00
2024-02-26T09:49:57.416Z,1012.00
2024-02-26T09:50:57.416Z,1011.00
2024-02-26T09:51:57.474Z,983.00
2024-02-26T09:52:57.389Z,990.00
2024-02-26T09:53:57.407Z,981.00
2024-02-26T09:54:57.352Z,1001.00
2024-02-26T09:55:57.443Z,1009.00
2024-02-26T09:57:03.958Z,1016.00
2024-02-26T09:57:58.536Z,1016.00
2024-02-26T09:58:57.443Z,1018.00
2024-02-26T09:59:57.401Z,1030.00
2024-02-26T10:00:57.415Z,1048.00
2024-02-26T10:01:57.378Z,1073.00
2024-02-26T10:02:57.436Z,1082.00
2024-02-26T10:03:57.460Z,1108.00
2024-02-26T10:04:57.514Z,1119.00
2024-02-26T10:05:57.504Z,1127.00
2024-02-26T10:06:57.466Z,1133.00
2024-02-26T10:07:57.393Z,1157.00
2024-02-26T10:08:57.497Z,1159.00
2024-02-26T10:09:57.403Z,1175.00
2024-02-26T10:10:57.399Z,1188.00
2024-02-26T10:11:57.541Z,1205.00
2024-02-26T10:12:57.535Z,1226.00
2024-02-26T10:13:57.382Z,1238.00
2024-02-26T10:14:57.429Z,1248.00
2024-02-26T10:15:57.386Z,1261.00
2024-02-26T10:16:57.544Z,1273.00
2024-02-26T10:17:57.650Z,1282.00
2024-02-26T10:18:59.734Z,1301.00
2024-02-26T10:19:57.625Z,1304.00
2024-02-26T10:20:57.480Z,1316.00
2024-02-26T10:21:57.577Z,1335.00
2024-02-26T10:22:57.481Z,1328.00
2024-02-26T10:23:57.569Z,1347.00
2024-02-26T10:24:57.484Z,1341.00
2024-02-26T10:25:57.493Z,1359.00
2024-02-26T10:26:57.537Z,1374.00
2024-02-26T10:27:57.579Z,1365.00
2024-02-26T10:28:57.490Z,1383.00
2024-02-26T10:29:57.498Z,1388.00
2024-02-26T10:30:57.513Z,1406.00
2024-02-26T10:31:58.029Z,1405.00
2024-02-26T10:32:57.623Z,1425.00
2024-02-26T10:33:58.009Z,1469.00
2024-02-26T10:34:57.664Z,1535.00
2024-02-26T10:35:57.528Z,1631.00
2024-02-26T10:36:58.610Z,1753.00
2024-02-26T10:37:57.512Z,1935.00
2024-02-26T10:38:57.542Z,2083.00
2024-02-26T10:39:57.572Z,2156.00
2024-02-26T10:40:57.555Z,2174.00
2024-02-26T10:41:58.044Z,2194.00
2024-02-26T10:42:57.599Z,2199.00
2024-02-26T10:43:57.604Z,2183.00
2024-02-26T10:44:57.643Z,2177.00
2024-02-26T10:45:57.575Z,2199.00
2024-02-26T10:46:57.988Z,2196.00
2024-02-26T10:47:57.732Z,2178.00
2024-02-26T10:48:57.686Z,2156.00
2024-02-26T10:49:57.645Z,2138.00
2024-02-26T10:50:57.568Z,2103.00
2024-02-26T10:51:57.667Z,2077.00
2024-02-26T10:52:57.566Z,2038.00
2024-02-26T10:54:01.436Z,2018.00
2024-02-26T10:55:00.537Z,2012.00
2024-02-26T10:55:57.573Z,1978.00
2024-02-26T10:56:57.645Z,1940.00
2024-02-26T10:57:57.554Z,1917.00
2024-02-26T10:58:57.541Z,1887.00
2024-02-26T10:59:57.822Z,1863.00
2024-02-26T11:00:57.619Z,1845.00
2024-02-26T11:01:57.551Z,1817.00
2024-02-26T11:02:57.605Z,1787.00
2024-02-26T11:03:57.675Z,1793.00
2024-02-26T11:04:57.642Z,1785.00
2024-02-26T11:05:57.648Z,1773.00
2024-02-26T11:06:57.760Z,1752.00
2024-02-26T11:07:57.554Z,1747.00
2024-02-26T11:08:57.582Z,1706.00
2024-02-26T11:09:57.550Z,1685.00
2024-02-26T11:10:57.645Z,1656.00
2024-02-26T11:11:57.637Z,1647.00
2024-02-26T11:12:57.579Z,1610.00
2024-02-26T11:13:57.566Z,1603.00
2024-02-26T11:14:57.586Z,1583.00
2024-02-26T11:15:57.689Z,1568.00
2024-02-26T11:16:57.573Z,1546.00
2024-02-26T11:17:57.659Z,1490.00
2024-02-26T11:18:57.743Z,1488.00
2024-02-26T11:19:57.574Z,1478.00
2024-02-26T11:20:57.619Z,1446.00
2024-02-26T11:21:59.050Z,1416.00
2024-02-26T11:22:57.588Z,1410.00
2024-02-26T11:23:57.617Z,1391.00
2024-02-26T11:24:57.579Z,1379.00
2024-02-26T11:25:57.582Z,1372.00
2024-02-26T11:26:57.595Z,1355.00
2024-02-26T11:27:57.580Z,1357.00
2024-02-26T11:28:57.579Z,1335.00
2024-02-26T11:29:57.614Z,1340.00
2024-02-26T11:30:57.584Z,1321.00
2024-02-26T11:31:58.121Z,1310.00
2024-02-26T11:32:57.709Z,1283.00
2024-02-26T11:33:57.816Z,1268.00
2024-02-26T11:34:57.681Z,1257.00
2024-02-26T11:35:57.651Z,1239.00
2024-02-26T11:36:58.012Z,1214.00
2024-02-26T11:37:57.804Z,1198.00
2024-02-26T11:38:57.610Z,1178.00
2024-02-26T11:39:57.595Z,1163.00
2024-02-26T11:40:57.589Z,1142.00
2024-02-26T11:41:58.066Z,1114.00
2024-02-26T11:42:57.600Z,1095.00
2024-02-26T11:43:57.610Z,1080.00
2024-02-26T11:44:57.603Z,1055.00
2024-02-26T11:45:57.604Z,1027.00
2024-02-26T11:46:58.054Z,1014.00
2024-02-26T11:47:57.960Z,999.00
2024-02-26T11:48:57.696Z,993.00
2024-02-26T11:49:57.644Z,992.00
2024-02-26T11:50:57.680Z,994.00
2024-02-26T11:51:57.608Z,999.00
2024-02-26T11:52:57.659Z,983.00
2024-02-26T11:53:57.636Z,1007.00
2024-02-26T11:54:57.610Z,998.00
2024-02-26T11:55:57.623Z,972.00
2024-02-26T11:56:57.672Z,955.00
2024-02-26T11:57:57.645Z,941.00
2024-02-26T11:58:57.630Z,936.00
2024-02-26T11:59:57.630Z,926.00
2024-02-26T12:00:57.641Z,896.00
2024-02-26T12:02:00.151Z,892.00
2024-02-26T12:02:57.665Z,893.00
2024-02-26T12:03:57.750Z,892.00
2024-02-26T12:04:57.677Z,893.00
2024-02-26T12:05:57.702Z,895.00
2024-02-26T12:06:57.857Z,1146.00
2024-02-26T12:07:57.638Z,1602.00
2024-02-26T12:08:57.694Z,1890.00
2024-02-26T12:09:57.639Z,1933.00
2024-02-26T12:10:57.650Z,1967.00
2024-02-26T12:11:57.730Z,1934.00
2024-02-26T12:12:57.712Z,2257.00
2024-02-26T12:13:57.653Z,2451.00
2024-02-26T12:14:57.787Z,2374.00
2024-02-26T12:15:57.704Z,2288.00
2024-02-26T12:16:57.638Z,2209.00
2024-02-26T12:17:57.705Z,2143.00
2024-02-26T12:18:57.726Z,2098.00
2024-02-26T12:19:57.787Z,2084.00